首页
METAR-TAF:

METAR-TAF

机场 :

恩賈梅納, 乍得

恩贾梅纳国际机场

纬度: 12-08N, 经度: 015-02E, 海拔: 295米

当前天气观测

该预报发布于54分钟前的06:00 UTC
风速4节,风向,在西之间变化
温度 32°C
湿度 49%
气压 1008 hPa
能見度: 6000

METAR: FTTJ 250600Z 19004KT 190V260 6000 NSC 32/20 Q1008 NOSIG

时间: 07:54 (06:54 UTC)

预报

该预报发布于1小时和51分钟前的05:03 UTC
预报有效从25日的 06点(UTC)到 26日的 12点(UTC)
风速3节,风向多变
能见度10公里或以上
1500米以下无云,无积雨云
成为
从 25日的 07点(UTC)到 25日的 10点(UTC)
风速8节,风向北转东北
能見度: 4000
几率 30% :
短暂存在
从 25日的 14点(UTC)到 25日的 18点(UTC)
风速15节,风向多变,有时为25节阵风
能見度: 3000
雷暴
成为
从 25日的 19点(UTC)到 25日的 21点(UTC)
能见度10公里或以上
1500米以下无云,无积雨云

TAF: FTTJ 250503Z 2506/2612 VRB03KT CAVOK BECMG 2507/2510 02008KT 4000 HZ PROB30 TEMPO 2514/2518 VRB15G25KT 3000 TS DS BECMG 2519/2521 VRB03T CAVOK

超过4000个机场的气象观测和天气预报(METAR&TAF报告)。

可查询的气象台以黄色和红色小点在地图上表示。

将鼠标移到小点上方,可查看气象台名称。

然后点击查看天气观测和预报。

如需切换地图:点击带黑十字的绿色按钮放大地图;点击带横线的绿色按钮缩小地图;或者点击绿色箭头查看邻近地区的地图。


METAR-TAF: